createdAt,value
2022-08-09T03:46:05.197Z,16.60
2022-08-09T03:48:30.780Z,16.60
2022-08-09T03:50:59.073Z,16.60
2022-08-09T03:53:32.371Z,16.60
2022-08-09T03:56:05.831Z,16.60
2022-08-09T03:58:33.096Z,16.60
2022-08-09T04:01:00.382Z,16.70
2022-08-09T04:03:45.873Z,16.60
2022-08-09T04:06:13.648Z,16.60
2022-08-09T04:08:40.831Z,16.60
2022-08-09T04:11:13.485Z,16.60
2022-08-09T04:14:36.792Z,16.70
2022-08-09T04:16:27.679Z,16.60
2022-08-09T04:18:54.403Z,16.60
2022-08-09T04:21:22.178Z,16.60
2022-08-09T04:23:53.951Z,16.60
2022-08-09T04:26:23.293Z,16.60
2022-08-09T04:28:50.700Z,16.60
2022-08-09T04:31:17.574Z,16.60
2022-08-09T04:33:47.635Z,16.60
2022-08-09T04:36:24.441Z,16.70
2022-08-09T04:38:51.544Z,16.70
2022-08-09T04:41:19.162Z,16.80
2022-08-09T04:44:05.329Z,16.80
2022-08-09T04:46:36.573Z,16.80
2022-08-09T04:49:30.117Z,16.80
2022-08-09T04:52:09.560Z,16.80
2022-08-09T04:54:36.976Z,16.80
2022-08-09T04:57:04.244Z,16.90
2022-08-09T04:59:31.435Z,16.90
2022-08-09T05:01:58.187Z,16.90
2022-08-09T05:04:30.757Z,17.00
2022-08-09T05:06:58.429Z,17.10
2022-08-09T05:09:25.412Z,17.20
2022-08-09T05:12:09.767Z,17.20
2022-08-09T05:14:41.245Z,17.30
2022-08-09T05:18:39.707Z,17.40
2022-08-09T05:19:57.121Z,17.50
2022-08-09T05:22:33.471Z,17.70
2022-08-09T05:25:12.262Z,17.80
2022-08-09T05:27:46.339Z,18.00
2022-08-09T05:30:15.418Z,18.00
2022-08-09T05:32:50.816Z,18.10
2022-08-09T05:35:18.371Z,18.20
2022-08-09T05:37:50.141Z,18.30
2022-08-09T05:40:18.199Z,18.30
2022-08-09T05:42:45.409Z,18.40
2022-08-09T05:45:14.672Z,18.50
2022-08-09T05:47:52.956Z,18.50
2022-08-09T05:50:36.094Z,18.60
2022-08-09T05:53:21.871Z,18.70
2022-08-09T05:55:58.375Z,18.80
2022-08-09T05:58:25.142Z,18.80
2022-08-09T06:00:53.541Z,18.80
2022-08-09T06:03:20.731Z,18.90
2022-08-09T06:05:54.815Z,19.00
2022-08-09T06:08:31.576Z,19.10
2022-08-09T06:10:59.240Z,19.20
2022-08-09T06:13:28.514Z,19.30
2022-08-09T06:16:00.684Z,19.40
2022-08-09T06:18:28.787Z,19.50
2022-08-09T06:20:58.337Z,19.50
2022-08-09T06:23:55.816Z,19.60
2022-08-09T06:26:20.829Z,19.80
2022-08-09T06:29:00.131Z,19.90
2022-08-09T06:31:39.954Z,19.90
2022-08-09T06:34:19.536Z,20.00
2022-08-09T06:36:46.517Z,20.00
2022-08-09T06:39:13.625Z,20.20
2022-08-09T06:42:09.161Z,20.30
2022-08-09T06:44:28.611Z,20.40
2022-08-09T06:46:55.760Z,20.40
2022-08-09T06:49:44.514Z,20.50
2022-08-09T06:52:15.658Z,20.60
2022-08-09T06:54:43.124Z,20.60
2022-08-09T06:57:12.030Z,20.70
2022-08-09T07:00:49.456Z,20.90
2022-08-09T07:02:29.220Z,20.90
2022-08-09T07:04:56.133Z,21.10
2022-08-09T07:07:58.583Z,21.10
2022-08-09T07:10:22.404Z,21.20
2022-08-09T07:12:58.562Z,21.20
2022-08-09T07:16:36.436Z,21.30
2022-08-09T07:18:14.242Z,21.40
2022-08-09T07:20:43.776Z,21.50
2022-08-09T07:23:19.186Z,21.50
2022-08-09T07:25:52.304Z,21.60
2022-08-09T07:28:28.995Z,21.60
2022-08-09T07:30:55.951Z,21.70
2022-08-09T07:33:23.172Z,21.90
2022-08-09T07:35:54.065Z,22.00
2022-08-09T07:38:21.570Z,22.00
2022-08-09T07:41:10.066Z,22.10
2022-08-09T07:43:41.370Z,22.30
2022-08-09T07:46:19.581Z,22.50
2022-08-09T07:48:58.799Z,22.50
2022-08-09T07:52:04.588Z,22.60
2022-08-09T07:54:14.375Z,22.80
2022-08-09T07:56:48.895Z,22.90
2022-08-09T07:59:33.842Z,23.00
2022-08-09T08:02:02.493Z,23.10
2022-08-09T08:04:32.357Z,23.30
2022-08-09T08:07:15.081Z,23.30
2022-08-09T08:10:05.741Z,23.40
2022-08-09T08:12:43.101Z,23.60
2022-08-09T08:15:17.463Z,23.60
2022-08-09T08:17:53.349Z,23.80
2022-08-09T08:20:28.531Z,23.70
2022-08-09T08:23:03.819Z,23.80
2022-08-09T08:25:43.815Z,23.90
2022-08-09T08:28:14.467Z,23.90
2022-08-09T08:30:43.780Z,24.00
2022-08-09T08:33:11.761Z,24.00
2022-08-09T08:35:58.537Z,24.30
2022-08-09T08:38:27.935Z,24.50
2022-08-09T08:40:56.367Z,24.60
2022-08-09T08:43:24.145Z,24.80
2022-08-09T08:46:32.016Z,25.00
2022-08-09T08:48:51.842Z,25.20
2022-08-09T08:51:22.911Z,25.50
2022-08-09T08:54:03.584Z,25.80
2022-08-09T08:56:34.186Z,26.00
2022-08-09T08:59:20.056Z,26.30
2022-08-09T09:01:53.401Z,26.70
2022-08-09T09:04:29.689Z,27.20
2022-08-09T09:07:08.157Z,27.30
2022-08-09T09:09:58.653Z,27.50
2022-08-09T09:12:29.926Z,28.00
2022-08-09T09:15:00.533Z,28.70
2022-08-09T09:17:48.433Z,29.20
2022-08-09T09:20:15.948Z,29.80
2022-08-09T09:23:01.594Z,29.80
2022-08-09T09:26:04.563Z,30.40
2022-08-09T09:29:03.030Z,30.90
2022-08-09T09:31:17.507Z,31.50
2022-08-09T09:34:18.413Z,32.00
2022-08-09T09:36:50.966Z,32.40
2022-08-09T09:39:23.298Z,32.50
2022-08-09T09:41:51.322Z,33.20
2022-08-09T09:44:31.523Z,32.70
2022-08-09T09:47:07.119Z,33.60
2022-08-09T09:50:07.795Z,33.90
2022-08-09T09:52:52.447Z,34.40
2022-08-09T09:55:27.703Z,35.30
2022-08-09T09:58:19.316Z,35.20
2022-08-09T10:00:58.950Z,34.90
2022-08-09T10:03:58.124Z,36.00
2022-08-09T10:06:42.813Z,36.40
2022-08-09T10:09:23.393Z,36.00
2022-08-09T10:12:12.851Z,36.10
2022-08-09T10:14:49.882Z,35.90
2022-08-09T10:17:51.025Z,35.90
2022-08-09T10:20:26.891Z,36.00
2022-08-09T10:23:12.391Z,35.70
2022-08-09T10:26:07.982Z,35.70
2022-08-09T10:28:32.845Z,34.70
2022-08-09T10:34:08.108Z,36.90
2022-08-09T10:36:35.616Z,37.20
2022-08-09T10:39:02.534Z,38.20
2022-08-09T10:41:29.270Z,37.90
2022-08-09T10:44:01.792Z,38.10
2022-08-09T10:46:54.600Z,37.40
2022-08-09T10:49:50.018Z,38.20
2022-08-09T10:52:21.535Z,38.60
2022-08-09T10:54:53.622Z,39.00
2022-08-09T10:57:23.251Z,39.30
2022-08-09T10:59:57.990Z,38.30
2022-08-09T11:03:18.278Z,37.90
2022-08-09T11:05:31.166Z,38.00
2022-08-09T11:08:43.811Z,37.60
2022-08-09T11:11:16.857Z,37.80
2022-08-09T11:13:53.722Z,39.10
2022-08-09T11:16:37.334Z,39.80
2022-08-09T11:19:09.586Z,40.40
2022-08-09T11:22:10.471Z,39.40
2022-08-09T11:25:47.178Z,38.80
2022-08-09T11:28:38.362Z,38.20
2022-08-09T11:31:49.549Z,37.70
2022-08-09T11:34:43.868Z,37.80
2022-08-09T11:37:23.527Z,36.70
2022-08-09T11:40:23.519Z,37.00
2022-08-09T11:42:56.507Z,37.40
2022-08-09T11:45:42.731Z,37.10
2022-08-09T11:48:26.828Z,37.70
2022-08-09T11:52:49.983Z,38.00
2022-08-09T11:54:01.273Z,38.50
2022-08-09T11:56:42.011Z,38.10
2022-08-09T11:59:30.678Z,37.60
2022-08-09T12:02:17.699Z,37.60
2022-08-09T12:04:58.980Z,37.60
2022-08-09T12:07:41.665Z,37.10
2022-08-09T12:10:14.450Z,36.50
2022-08-09T12:12:58.192Z,36.20
2022-08-09T12:15:49.903Z,35.70
2022-08-09T12:18:29.839Z,35.30
2022-08-09T12:21:00.530Z,35.40
2022-08-09T12:23:56.635Z,35.20
2022-08-09T12:26:25.298Z,35.40
2022-08-09T12:29:14.626Z,35.40
2022-08-09T12:31:59.039Z,35.40
2022-08-09T12:34:39.830Z,35.20
2022-08-09T12:37:21.363Z,35.10
2022-08-09T12:40:11.128Z,35.00
2022-08-09T12:42:44.378Z,34.80
2022-08-09T12:45:33.322Z,34.70
2022-08-09T12:47:59.153Z,34.80
2022-08-09T12:50:26.182Z,34.70
2022-08-09T12:53:08.089Z,34.50
2022-08-09T12:56:14.497Z,34.30
2022-08-09T12:58:24.219Z,33.80
2022-08-09T13:00:54.411Z,33.40
2022-08-09T13:03:56.968Z,33.70
2022-08-09T13:06:34.807Z,34.00
2022-08-09T13:09:06.528Z,34.10
2022-08-09T13:11:42.258Z,34.40
2022-08-09T13:14:41.988Z,33.90
2022-08-09T13:17:01.417Z,33.70
2022-08-09T13:20:08.802Z,33.80
2022-08-09T13:23:00.419Z,34.00
2022-08-09T13:25:15.059Z,34.30
2022-08-09T13:27:55.013Z,34.40
2022-08-09T13:30:50.734Z,34.30
2022-08-09T13:33:20.913Z,34.50
2022-08-09T13:36:24.272Z,34.70
2022-08-09T13:38:56.700Z,34.50
2022-08-09T13:41:57.930Z,34.60
2022-08-09T13:44:13.553Z,34.90
2022-08-09T13:47:30.807Z,35.00
2022-08-09T13:49:35.282Z,35.20
2022-08-09T13:52:09.305Z,35.40
2022-08-09T13:54:42.821Z,35.20
2022-08-09T13:57:36.596Z,34.80
2022-08-09T14:00:05.491Z,34.80
2022-08-09T14:02:32.846Z,35.00
2022-08-09T14:05:03.557Z,35.00
2022-08-09T14:07:41.169Z,35.00
2022-08-09T14:10:17.200Z,34.70
2022-08-09T14:12:44.409Z,34.60
2022-08-09T14:16:02.090Z,34.60
2022-08-09T14:18:19.277Z,34.60
2022-08-09T14:20:44.915Z,34.50
2022-08-09T14:23:22.764Z,34.70
2022-08-09T14:26:05.842Z,34.70
2022-08-09T14:28:33.534Z,34.60
2022-08-09T14:31:00.312Z,34.60
2022-08-09T14:33:27.702Z,34.50
2022-08-09T14:35:56.131Z,34.20
2022-08-09T14:38:22.910Z,34.00
2022-08-09T14:41:01.033Z,33.90
2022-08-09T14:43:47.607Z,34.00
2022-08-09T14:46:51.367Z,33.90
2022-08-09T14:49:02.949Z,34.00
2022-08-09T14:51:30.517Z,34.00
2022-08-09T14:54:09.635Z,33.70
2022-08-09T14:56:57.458Z,33.50
2022-08-09T14:59:23.537Z,33.60
2022-08-09T15:01:50.602Z,33.60
2022-08-09T15:04:18.402Z,33.50
2022-08-09T15:06:49.744Z,33.50
2022-08-09T15:09:30.462Z,33.30
2022-08-09T15:12:08.100Z,33.20
2022-08-09T15:14:38.512Z,33.20
2022-08-09T15:17:09.728Z,33.00
2022-08-09T15:19:37.123Z,33.00
2022-08-09T15:22:26.156Z,32.80
2022-08-09T15:24:53.757Z,32.80
2022-08-09T15:27:21.238Z,32.90
2022-08-09T15:30:57.718Z,32.60
2022-08-09T15:32:35.804Z,32.60
2022-08-09T15:35:18.073Z,32.40
2022-08-09T15:37:56.759Z,32.60
2022-08-09T15:40:33.983Z,33.00
2022-08-09T15:43:01.950Z,33.00
2022-08-09T15:45:30.084Z,33.10
2022-08-09T15:48:05.491Z,33.00
2022-08-09T15:50:43.854Z,32.70
2022-08-09T15:53:18.782Z,32.40
2022-08-09T15:56:23.418Z,32.40
2022-08-09T15:58:44.868Z,32.20
2022-08-09T16:01:13.735Z,32.10
2022-08-09T16:03:41.527Z,32.00
2022-08-09T16:06:29.368Z,32.00
2022-08-09T16:08:56.692Z,32.00
2022-08-09T16:11:30.907Z,31.90
2022-08-09T16:14:06.518Z,31.90
2022-08-09T16:16:36.957Z,31.90
2022-08-09T16:19:05.774Z,31.90
2022-08-09T16:21:35.238Z,31.90
2022-08-09T16:24:19.975Z,31.90
2022-08-09T16:26:53.201Z,31.70
2022-08-09T16:29:37.385Z,31.60
2022-08-09T16:32:19.578Z,31.70
2022-08-09T16:34:56.655Z,31.70
2022-08-09T16:37:54.993Z,31.80
2022-08-09T16:40:14.738Z,31.50
2022-08-09T16:42:57.270Z,31.50
2022-08-09T16:45:24.089Z,31.50
2022-08-09T16:48:41.795Z,31.40
2022-08-09T16:50:41.811Z,31.50
2022-08-09T16:53:32.312Z,31.40
2022-08-09T16:56:05.959Z,31.10
2022-08-09T16:58:37.177Z,31.10
2022-08-09T17:01:07.663Z,31.10
2022-08-09T17:03:35.100Z,31.10
2022-08-09T17:06:08.639Z,30.80
2022-08-09T17:09:02.722Z,30.50
2022-08-09T17:11:41.912Z,30.20
2022-08-09T17:14:25.945Z,29.90
2022-08-09T17:17:02.663Z,29.70
2022-08-09T17:19:47.671Z,29.80
2022-08-09T17:22:23.985Z,29.90
2022-08-09T17:25:03.842Z,29.90
2022-08-09T17:27:33.488Z,29.90
2022-08-09T17:30:04.821Z,29.90
2022-08-09T17:32:38.377Z,30.00
2022-08-09T17:35:11.780Z,29.90
2022-08-09T17:38:12.084Z,29.60
2022-08-09T17:40:30.205Z,29.30
2022-08-09T17:42:59.878Z,29.00
2022-08-09T17:45:45.536Z,28.90
2022-08-09T17:48:17.403Z,29.00
2022-08-09T17:50:55.851Z,29.00
2022-08-09T17:53:23.488Z,29.00
2022-08-09T17:55:55.704Z,29.00
2022-08-09T17:58:27.060Z,29.00
2022-08-09T18:00:56.634Z,29.00
2022-08-09T18:03:25.276Z,29.00
2022-08-09T18:05:53.195Z,28.90
2022-08-09T18:08:21.840Z,28.80
2022-08-09T18:11:00.791Z,28.70
2022-08-09T18:13:38.993Z,28.60
2022-08-09T18:16:29.361Z,28.60
2022-08-09T18:18:57.574Z,28.40
2022-08-09T18:21:26.372Z,28.30
2022-08-09T18:24:11.362Z,28.10
2022-08-09T18:26:46.637Z,28.00
2022-08-09T18:30:40.711Z,27.90
2022-08-09T18:32:05.082Z,27.80
2022-08-09T18:34:35.031Z,27.60
2022-08-09T18:37:10.328Z,27.50
2022-08-09T18:39:52.932Z,27.40
2022-08-09T18:42:19.837Z,27.20
2022-08-09T18:44:47.954Z,27.10
2022-08-09T18:47:17.653Z,27.10
2022-08-09T18:49:47.694Z,26.90
2022-08-09T18:52:25.005Z,26.80
2022-08-09T18:55:01.552Z,26.60
2022-08-09T18:57:38.445Z,26.30
2022-08-09T19:00:16.613Z,26.10
2022-08-09T19:02:47.113Z,25.80
2022-08-09T19:05:19.707Z,25.70
2022-08-09T19:08:03.565Z,25.50
2022-08-09T19:10:39.332Z,25.30
2022-08-09T19:13:16.918Z,25.10
2022-08-09T19:15:56.253Z,25.00
2022-08-09T19:18:37.457Z,24.70
2022-08-09T19:21:09.744Z,24.50
2022-08-09T19:24:32.489Z,24.30
2022-08-09T19:26:29.485Z,24.10
2022-08-09T19:29:01.651Z,24.00
2022-08-09T19:31:30.586Z,23.90
2022-08-09T19:33:58.222Z,23.90
2022-08-09T19:36:31.000Z,23.70
2022-08-09T19:39:01.144Z,23.60
2022-08-09T19:41:35.453Z,23.50
2022-08-09T19:44:03.416Z,23.30
2022-08-09T19:46:35.685Z,23.20
2022-08-09T19:50:09.776Z,23.10
2022-08-09T19:51:55.899Z,23.00
2022-08-09T19:54:29.486Z,23.00
2022-08-09T19:56:57.209Z,23.10
2022-08-09T19:59:58.269Z,23.00
2022-08-09T20:02:18.353Z,23.00
2022-08-09T20:04:59.998Z,22.90
2022-08-09T20:07:57.018Z,22.80
2022-08-09T20:10:17.329Z,22.80
2022-08-09T20:12:49.038Z,22.60
2022-08-09T20:16:33.522Z,22.50
2022-08-09T20:18:07.485Z,22.40
2022-08-09T20:20:35.513Z,22.30
2022-08-09T20:23:04.586Z,22.30
2022-08-09T20:25:38.144Z,22.20
2022-08-09T20:28:34.082Z,22.20
2022-08-09T20:31:04.675Z,22.10
2022-08-09T20:33:38.963Z,22.10
2022-08-09T20:36:08.799Z,22.10
2022-08-09T20:39:02.270Z,22.00
2022-08-09T20:41:34.802Z,21.90
2022-08-09T20:44:05.030Z,21.80
2022-08-09T20:46:43.165Z,21.70
2022-08-09T20:49:13.514Z,21.60
2022-08-09T20:51:40.938Z,21.50
2022-08-09T20:54:12.394Z,21.50
2022-08-09T20:56:43.145Z,21.30
2022-08-09T20:59:13.606Z,21.20
2022-08-09T21:01:50.708Z,21.00
2022-08-09T21:05:52.670Z,21.00
2022-08-09T21:07:11.577Z,20.80
2022-08-09T21:09:56.397Z,20.70
2022-08-09T21:15:14.647Z,20.50
2022-08-09T21:18:21.119Z,20.40
2022-08-09T21:20:29.817Z,20.50
2022-08-09T21:22:58.151Z,20.50
2022-08-09T21:25:55.523Z,20.50
2022-08-09T21:28:33.324Z,20.40
2022-08-09T21:31:18.080Z,20.30
2022-08-09T21:33:50.801Z,20.30
2022-08-09T21:36:28.642Z,20.30
2022-08-09T21:38:59.136Z,20.20
2022-08-09T21:42:03.462Z,20.20
2022-08-09T21:44:33.110Z,20.10
2022-08-09T21:47:05.262Z,20.20
2022-08-09T21:49:40.278Z,20.20
2022-08-09T21:52:17.430Z,20.10
2022-08-09T21:55:03.316Z,20.00
2022-08-09T21:57:39.048Z,20.00
2022-08-09T22:00:25.899Z,20.00
2022-08-09T22:02:59.266Z,19.90
2022-08-09T22:05:35.559Z,19.90
2022-08-09T22:08:06.018Z,19.80
2022-08-09T22:10:33.241Z,19.80
2022-08-09T22:13:07.624Z,19.80
2022-08-09T22:15:38.457Z,19.80
2022-08-09T22:18:11.923Z,19.80
2022-08-09T22:20:40.125Z,19.80
2022-08-09T22:23:10.547Z,19.80
2022-08-09T22:26:05.280Z,19.80
2022-08-09T22:28:32.999Z,19.80
2022-08-09T22:31:00.954Z,19.70
2022-08-09T22:33:48.646Z,19.70
2022-08-09T22:36:19.394Z,19.70
2022-08-09T22:38:46.641Z,19.70
2022-08-09T22:41:13.347Z,19.70
2022-08-09T22:44:01.496Z,19.60
2022-08-09T22:48:14.689Z,19.60
2022-08-09T22:49:13.972Z,19.50
2022-08-09T22:51:43.558Z,19.50
2022-08-09T22:54:17.121Z,19.40
2022-08-09T22:56:50.817Z,19.40
2022-08-09T22:59:56.773Z,19.30
